Time;durP1;ratioP1;P1;durP2;ratioP2;P2;SDS_P1;SDS_P2;PMS_P1;PMS_P2;Temp;Humidity;BMP_temperature;BMP_pressure;BME280_temperature;BME280_humidity;BME280_pressure;Samples;Min_cycle;Max_cycle;Signal;HPM_P1;HPM_P2
2023/01/11 00:01:18;;;;;;;163.38;25.02;;;10.00;92.70;;;;;;5104600;28;20040;-58
2023/01/11 00:03:44;;;;;;;158.82;24.88;;;10.00;92.80;;;;;;5104631;28;20076;-58
2023/01/11 00:06:10;;;;;;;144.75;23.90;;;10.00;92.90;;;;;;5103115;28;20078;-58
2023/01/11 00:08:35;;;;;;;139.50;23.25;;;9.90;92.80;;;;;;5103330;28;20028;-58
2023/01/11 00:11:01;;;;;;;162.07;25.35;;;9.90;92.90;;;;;;5103126;28;20043;-58
2023/01/11 00:13:27;;;;;;;151.18;23.00;;;9.90;93.10;;;;;;5103015;28;20031;-58
2023/01/11 00:15:53;;;;;;;155.10;24.05;;;9.90;93.10;;;;;;5103165;28;20086;-58
2023/01/11 00:18:18;;;;;;;159.40;24.63;;;9.90;93.00;;;;;;5104612;28;20028;-58
2023/01/11 00:20:44;;;;;;;153.77;22.67;;;9.90;92.90;;;;;;5105965;28;20035;-57
2023/01/11 00:23:10;;;;;;;136.32;21.52;;;9.90;92.90;;;;;;5089961;28;20016;-58
2023/01/11 00:25:35;;;;;;;130.52;22.33;;;9.90;93.10;;;;;;5106910;28;20036;-58
2023/01/11 00:28:01;;;;;;;128.73;22.50;;;9.90;93.20;;;;;;5107070;28;20074;-58
2023/01/11 00:30:26;;;;;;;131.77;20.88;;;9.80;93.00;;;;;;5106852;28;20028;-58
2023/01/11 00:32:56;;;;;;;141.13;21.55;;;9.80;93.10;;;;;;5106714;28;20063;-58
2023/01/11 00:35:22;;;;;;;113.60;21.23;;;9.80;93.10;;;;;;5108167;28;20028;-58
2023/01/11 00:37:47;;;;;;;131.82;20.77;;;9.90;93.00;;;;;;5106952;28;20032;-58
2023/01/11 00:40:13;;;;;;;102.35;19.70;;;9.80;93.00;;;;;;5108101;28;20031;-58
2023/01/11 00:48:06;;;;;;;126.38;20.40;;;9.80;93.00;;;;;;5106498;28;20522;-58
2023/01/11 00:50:34;;;;;;;125.63;20.63;;;9.80;93.20;;;;;;5107824;28;20024;-58
2023/01/11 00:53:00;;;;;;;109.03;18.65;;;9.80;93.20;;;;;;5106519;28;20028;-58
2023/01/11 00:55:25;;;;;;;112.47;20.45;;;9.80;93.10;;;;;;5106442;28;20056;-57
2023/01/11 00:57:51;;;;;;;99.32;19.08;;;9.80;93.20;;;;;;5106331;28;20028;-58
2023/01/11 01:00:18;;;;;;;119.18;18.70;;;9.80;93.20;;;;;;5106408;28;20063;-58
2023/01/11 01:02:43;;;;;;;96.65;18.27;;;9.80;93.10;;;;;;5106514;28;20085;-58
2023/01/11 01:05:09;;;;;;;115.20;17.92;;;9.80;93.10;;;;;;5106172;28;20069;-58
2023/01/11 01:07:35;;;;;;;112.85;19.38;;;9.70;93.00;;;;;;5105945;28;20028;-58
2023/01/11 01:10:01;;;;;;;76.45;17.10;;;9.70;93.00;;;;;;5106079;28;20024;-58
2023/01/11 01:15:10;;;;;;;90.88;17.92;;;9.70;93.10;;;;;;5107293;28;20043;-58
2023/01/11 01:17:36;;;;;;;95.63;18.63;;;9.70;93.00;;;;;;5105813;28;20032;-58
2023/01/11 01:20:01;;;;;;;84.13;17.08;;;9.70;93.10;;;;;;5105814;28;20031;-58
2023/01/11 01:22:27;;;;;;;95.30;17.02;;;9.70;93.20;;;;;;5105821;28;20032;-57
2023/01/11 01:24:52;;;;;;;93.35;17.13;;;9.70;93.20;;;;;;5105892;28;20043;-58
2023/01/11 01:27:18;;;;;;;86.35;17.30;;;9.70;93.10;;;;;;5107344;28;20028;-57
2023/01/11 01:29:44;;;;;;;89.05;17.20;;;9.70;93.20;;;;;;5107116;28;20114;-58
2023/01/11 01:32:10;;;;;;;95.07;17.40;;;9.70;93.20;;;;;;5105825;28;20126;-58
2023/01/11 01:34:36;;;;;;;78.03;16.52;;;9.70;93.20;;;;;;5107014;28;20032;-58
2023/01/11 01:37:09;;;;;;;88.50;16.85;;;9.70;93.20;;;;;;5105434;28;20055;-58
2023/01/11 01:39:34;;;;;;;88.57;17.15;;;9.70;93.20;;;;;;5105607;28;20039;-57
2023/01/11 01:42:00;;;;;;;91.78;17.30;;;9.70;93.20;;;;;;5106896;28;20032;-58
2023/01/11 01:44:47;;;;;;;82.35;15.20;;;9.60;93.10;;;;;;5106742;28;20024;-58
2023/01/11 01:47:13;;;;;;;106.78;17.77;;;9.60;93.20;;;;;;5106632;28;20024;-58
2023/01/11 01:49:38;;;;;;;86.05;16.95;;;9.60;93.10;;;;;;5105448;28;20086;-58
2023/01/11 01:52:04;;;;;;;64.18;14.55;;;9.60;93.10;;;;;;5105420;28;20115;-58
2023/01/11 01:54:31;;;;;;;66.20;15.93;;;9.60;93.30;;;;;;5105445;28;20150;-58
2023/01/11 01:56:59;;;;;;;86.43;17.27;;;9.60;93.20;;;;;;5105252;28;20040;-57
2023/01/11 01:59:25;;;;;;;80.00;16.33;;;9.60;93.20;;;;;;5105309;28;20040;-57
2023/01/11 02:01:51;;;;;;;85.90;16.13;;;9.60;93.30;;;;;;5106382;28;20032;-58
2023/01/11 02:04:24;;;;;;;74.28;16.67;;;9.60;93.20;;;;;;5105243;28;20025;-58
2023/01/11 02:07:05;;;;;;;60.25;14.43;;;9.60;93.50;;;;;;5105196;28;20154;-58
2023/01/11 02:09:50;;;;;;;63.88;15.32;;;9.60;93.30;;;;;;5105058;28;20031;-58
2023/01/11 02:12:15;;;;;;;66.13;14.38;;;9.60;93.30;;;;;;5105019;28;20054;-57
2023/01/11 02:14:41;;;;;;;75.85;13.85;;;9.50;93.20;;;;;;5104949;28;20020;-58
2023/01/11 02:17:07;;;;;;;65.68;15.07;;;9.50;93.20;;;;;;5104926;28;20028;-57
2023/01/11 02:20:08;;;;;;;56.35;13.68;;;9.50;93.30;;;;;;5106188;28;20031;-57
2023/01/11 02:22:59;;;;;;;68.65;14.38;;;9.50;93.70;;;;;;5104799;28;20036;-58
2023/01/11 02:26:03;;;;;;;64.65;13.13;;;9.50;93.90;;;;;;5104714;28;20101;-57
2023/01/11 02:28:38;;;;;;;48.47;12.57;;;9.50;94.00;;;;;;5106057;28;20030;-57
2023/01/11 02:31:03;;;;;;;77.63;13.75;;;9.50;94.10;;;;;;5104679;28;20043;-58
2023/01/11 02:33:44;;;;;;;57.75;12.80;;;9.50;94.20;;;;;;5105992;28;20020;-58
2023/01/11 02:36:31;;;;;;;63.97;12.73;;;9.50;94.20;;;;;;5104400;28;20484;-58
2023/01/11 02:39:50;;;;;;;61.30;13.68;;;9.50;94.10;;;;;;5105915;28;20032;-58
2023/01/11 02:45:39;;;;;;;47.92;13.15;;;9.50;94.10;;;;;;5105667;28;20039;-58
2023/01/11 02:48:10;;;;;;;55.75;13.77;;;9.50;94.10;;;;;;5105770;28;20115;-57
2023/01/11 02:50:38;;;;;;;49.08;13.23;;;9.50;94.10;;;;;;5104063;28;20039;-57
2023/01/11 02:53:11;;;;;;;46.88;12.25;;;9.50;94.00;;;;;;5105385;28;20115;-57
2023/01/11 02:55:39;;;;;;;55.42;12.63;;;9.50;94.00;;;;;;5104383;28;20040;-57
2023/01/11 02:58:06;;;;;;;48.17;11.52;;;9.50;93.90;;;;;;5103943;28;20032;-57
2023/01/11 03:00:32;;;;;;;43.67;11.38;;;9.50;93.80;;;;;;5104084;28;20058;-58
2023/01/11 03:03:28;;;;;;;46.03;12.25;;;9.50;93.70;;;;;;5086982;28;20024;-57
2023/01/11 03:05:54;;;;;;;32.88;11.07;;;9.50;93.70;;;;;;5095401;28;20047;-58
2023/01/11 03:08:40;;;;;;;44.00;11.40;;;9.50;93.60;;;;;;5086948;28;20036;-58
2023/01/11 03:11:07;;;;;;;46.72;11.27;;;9.50;93.60;;;;;;5104020;28;20085;-57
2023/01/11 03:13:57;;;;;;;38.97;10.85;;;9.50;93.60;;;;;;5104100;28;20036;-58
2023/01/11 03:16:22;;;;;;;47.38;11.80;;;9.50;93.60;;;;;;5103753;28;20085;-57
2023/01/11 03:19:26;;;;;;;43.28;10.52;;;9.50;93.60;;;;;;5103824;28;20024;-58
2023/01/11 03:22:12;;;;;;;46.40;10.77;;;9.50;93.50;;;;;;5104849;28;20453;-58
2023/01/11 03:24:49;;;;;;;38.35;9.63;;;9.50;93.50;;;;;;5103877;28;20023;-57
2023/01/11 03:27:20;;;;;;;39.75;9.50;;;9.50;93.40;;;;;;5103671;28;20032;-58
2023/01/11 03:30:08;;;;;;;34.92;9.05;;;9.50;93.30;;;;;;5104957;28;20047;-58
2023/01/11 03:32:48;;;;;;;32.45;8.68;;;9.50;93.20;;;;;;5105093;28;20032;-57
2023/01/11 03:35:35;;;;;;;40.75;8.85;;;9.50;93.10;;;;;;5103456;28;20157;-58
2023/01/11 03:38:11;;;;;;;33.72;8.52;;;9.50;93.00;;;;;;5103647;28;20057;-57
2023/01/11 03:40:39;;;;;;;27.45;7.22;;;9.50;92.90;;;;;;5103748;28;20043;-58
2023/01/11 03:43:10;;;;;;;27.48;7.90;;;9.50;92.80;;;;;;5103703;28;20047;-57
2023/01/11 03:45:44;;;;;;;30.60;8.05;;;9.40;92.60;;;;;;5103596;28;20040;-57
2023/01/11 03:48:22;;;;;;;32.45;8.48;;;9.50;92.60;;;;;;5103463;28;20078;-58
2023/01/11 03:50:48;;;;;;;29.98;8.40;;;9.40;92.60;;;;;;5103633;28;20032;-58
2023/01/11 03:53:14;;;;;;;26.45;7.82;;;9.50;92.60;;;;;;5103747;28;20096;-58
2023/01/11 03:55:40;;;;;;;24.13;7.55;;;9.50;92.70;;;;;;5106511;28;20150;-58
2023/01/11 03:58:07;;;;;;;38.50;8.52;;;9.50;92.60;;;;;;5107611;28;20027;-57
2023/01/11 04:00:34;;;;;;;26.10;7.03;;;9.40;92.60;;;;;;5107778;28;20035;-56
2023/01/11 04:03:00;;;;;;;29.20;7.22;;;9.40;92.60;;;;;;5107682;28;20020;-58
2023/01/11 04:05:26;;;;;;;27.17;7.28;;;9.40;92.50;;;;;;5107707;28;20039;-57
2023/01/11 04:07:51;;;;;;;24.42;7.22;;;9.40;92.50;;;;;;5107415;28;20024;-57
2023/01/11 04:10:17;;;;;;;18.48;7.07;;;9.40;92.40;;;;;;5107537;28;20028;-57
2023/01/11 04:12:47;;;;;;;25.92;7.03;;;9.40;92.50;;;;;;5107205;28;20024;-58
2023/01/11 04:15:15;;;;;;;26.50;7.75;;;9.40;92.40;;;;;;5107327;28;20110;-58
2023/01/11 04:17:41;;;;;;;19.35;5.97;;;9.40;92.50;;;;;;5108574;28;20028;-57
2023/01/11 04:20:08;;;;;;;24.45;6.43;;;9.40;92.50;;;;;;5106944;28;20032;-57
2023/01/11 04:22:33;;;;;;;23.35;7.53;;;9.40;92.50;;;;;;5107083;28;20051;-57
2023/01/11 04:24:59;;;;;;;22.00;5.97;;;9.40;92.50;;;;;;5106944;28;20031;-58
2023/01/11 04:27:25;;;;;;;24.63;6.80;;;9.40;92.40;;;;;;5106968;28;20084;-58
2023/01/11 04:29:50;;;;;;;22.85;6.03;;;9.40;92.40;;;;;;5108300;28;20481;-57
2023/01/11 04:32:16;;;;;;;20.23;7.00;;;9.40;92.40;;;;;;5108490;28;20040;-57
2023/01/11 04:34:41;;;;;;;22.70;6.20;;;9.40;92.40;;;;;;5106998;28;20039;-57
2023/01/11 04:37:07;;;;;;;30.40;7.25;;;9.40;92.40;;;;;;5106851;28;20101;-58
2023/01/11 04:39:32;;;;;;;29.48;7.35;;;9.40;92.40;;;;;;5108313;28;20400;-57
2023/01/11 04:44:42;;;;;;;25.83;7.38;;;9.40;92.40;;;;;;5108015;28;20039;-58
2023/01/11 04:47:07;;;;;;;28.92;6.93;;;9.40;92.50;;;;;;5106777;28;20036;-58
2023/01/11 04:49:33;;;;;;;31.30;7.03;;;9.40;92.40;;;;;;5106633;28;20020;-58
2023/01/11 04:51:58;;;;;;;21.17;6.45;;;9.40;92.70;;;;;;5106611;28;20055;-58
2023/01/11 04:54:24;;;;;;;22.27;6.25;;;9.40;92.30;;;;;;5089479;28;20036;-58
2023/01/11 04:56:50;;;;;;;28.35;6.97;;;9.40;92.40;;;;;;5107957;28;20051;-57
2023/01/11 04:59:15;;;;;;;25.92;7.45;;;9.40;92.40;;;;;;5107792;28;20043;-58
2023/01/11 05:01:41;;;;;;;19.23;6.75;;;9.40;92.40;;;;;;5106454;28;20032;-58
2023/01/11 05:04:06;;;;;;;25.15;6.40;;;9.40;92.60;;;;;;5089485;28;20069;-57
2023/01/11 05:06:32;;;;;;;21.83;6.15;;;9.40;92.60;;;;;;5107255;28;20050;-58
2023/01/11 05:08:57;;;;;;;20.50;6.78;;;9.40;92.70;;;;;;5106158;28;20077;-57
2023/01/11 05:11:23;;;;;;;21.27;5.78;;;9.40;92.70;;;;;;5107631;28;20049;-57
2023/01/11 05:13:48;;;;;;;21.42;6.05;;;9.40;92.70;;;;;;5107575;28;20051;-58
2023/01/11 05:16:16;;;;;;;20.33;5.45;;;9.50;92.80;;;;;;5089072;28;20058;-57
2023/01/11 05:18:43;;;;;;;20.45;5.72;;;9.50;92.60;;;;;;5106174;28;20055;-57
2023/01/11 05:21:09;;;;;;;25.27;5.85;;;9.50;92.60;;;;;;5105850;28;20036;-57
2023/01/11 05:23:35;;;;;;;24.98;5.15;;;9.50;92.80;;;;;;5107408;28;20380;-57
2023/01/11 05:26:05;;;;;;;20.20;5.63;;;9.50;92.90;;;;;;5106073;28;20031;-57
2023/01/11 05:28:31;;;;;;;23.48;6.25;;;9.50;93.00;;;;;;5106100;28;20016;-58
2023/01/11 05:30:57;;;;;;;18.85;5.65;;;9.50;93.10;;;;;;5107261;28;20032;-57
2023/01/11 05:33:22;;;;;;;18.13;5.80;;;9.50;93.30;;;;;;5105956;28;20087;-57
2023/01/11 05:35:48;;;;;;;15.02;5.13;;;9.50;93.30;;;;;;5105694;28;20035;-58
2023/01/11 05:38:13;;;;;;;14.02;4.80;;;9.50;93.40;;;;;;5105716;28;20080;-57
2023/01/11 05:40:39;;;;;;;15.70;4.82;;;9.50;93.40;;;;;;5105569;28;20024;-57
2023/01/11 05:43:04;;;;;;;20.08;4.82;;;9.50;93.40;;;;;;5106952;28;20526;-57
2023/01/11 05:45:31;;;;;;;18.98;5.50;;;9.50;93.40;;;;;;5106652;28;20032;-57
2023/01/11 05:47:57;;;;;;;13.13;4.93;;;9.50;93.40;;;;;;5105586;28;20035;-58
2023/01/11 05:50:23;;;;;;;19.23;5.03;;;9.50;93.40;;;;;;5106756;28;20028;-57
2023/01/11 05:52:49;;;;;;;21.33;4.90;;;9.50;93.40;;;;;;5106718;28;20026;-57
2023/01/11 05:55:15;;;;;;;17.02;4.82;;;9.50;93.50;;;;;;5105082;28;20063;-57
2023/01/11 05:57:41;;;;;;;15.27;4.65;;;9.50;93.40;;;;;;5106710;28;20028;-58
2023/01/11 06:00:07;;;;;;;19.50;4.75;;;9.50;93.40;;;;;;5105055;28;20020;-57
2023/01/11 06:02:35;;;;;;;14.50;4.65;;;9.40;93.40;;;;;;5106556;28;20066;-57
2023/01/11 06:05:01;;;;;;;20.58;4.63;;;9.50;93.50;;;;;;5106379;28;20100;-57
2023/01/11 06:07:26;;;;;;;14.32;4.60;;;9.50;93.50;;;;;;5105299;28;20020;-57
2023/01/11 06:09:52;;;;;;;18.08;4.63;;;9.40;93.30;;;;;;5106431;28;20016;-58
2023/01/11 06:12:17;;;;;;;18.20;4.90;;;9.50;93.30;;;;;;5105134;28;20028;-57
2023/01/11 06:14:43;;;;;;;14.93;4.13;;;9.40;93.20;;;;;;5106450;28;20028;-57
2023/01/11 06:17:08;;;;;;;14.45;4.40;;;9.50;93.20;;;;;;5105669;28;20033;-58
2023/01/11 06:19:34;;;;;;;15.55;4.57;;;9.50;93.20;;;;;;5105057;28;20107;-57
2023/01/11 06:22:00;;;;;;;13.50;3.85;;;9.40;93.20;;;;;;5104877;28;20451;-58
2023/01/11 06:24:25;;;;;;;11.57;4.28;;;9.50;93.20;;;;;;5106086;28;20032;-57
2023/01/11 06:26:51;;;;;;;15.68;3.90;;;9.50;93.20;;;;;;5104852;28;20028;-57
2023/01/11 06:29:17;;;;;;;16.48;4.63;;;9.40;93.30;;;;;;5087703;28;20028;-57
2023/01/11 06:31:43;;;;;;;16.80;4.03;;;9.40;93.30;;;;;;5105716;28;20113;-57
2023/01/11 06:34:08;;;;;;;14.43;4.82;;;9.40;93.30;;;;;;5104778;28;20108;-57
2023/01/11 06:36:34;;;;;;;9.60;4.00;;;9.40;93.40;;;;;;5104658;28;20051;-57
2023/01/11 06:38:59;;;;;;;9.70;4.07;;;9.40;93.40;;;;;;5105978;28;20039;-57
2023/01/11 06:41:25;;;;;;;15.23;4.05;;;9.40;93.40;;;;;;5104438;28;20115;-58
2023/01/11 06:43:50;;;;;;;15.88;4.15;;;9.40;93.40;;;;;;5104286;28;20024;-57
2023/01/11 06:46:17;;;;;;;17.63;4.03;;;9.40;93.40;;;;;;5106016;28;20024;-58
2023/01/11 06:48:43;;;;;;;10.23;3.60;;;9.40;93.30;;;;;;5104396;28;20051;-57
2023/01/11 06:51:12;;;;;;;16.05;3.97;;;9.40;93.30;;;;;;5104256;28;20505;-57
2023/01/11 06:53:38;;;;;;;8.70;3.95;;;9.40;93.30;;;;;;5104380;28;20417;-57
2023/01/11 06:56:03;;;;;;;16.55;3.92;;;9.40;93.30;;;;;;5105632;28;20032;-58
2023/01/11 06:58:29;;;;;;;13.45;3.40;;;9.40;93.30;;;;;;5104327;28;20051;-57
2023/01/11 07:00:55;;;;;;;9.98;3.45;;;9.40;93.30;;;;;;5103923;28;20103;-57
2023/01/11 07:03:23;;;;;;;11.35;3.97;;;9.40;93.30;;;;;;5103953;28;20083;-57
2023/01/11 07:05:48;;;;;;;10.27;3.28;;;9.40;93.30;;;;;;5105402;28;20051;-58
2023/01/11 07:08:14;;;;;;;12.55;4.07;;;9.40;93.20;;;;;;5104214;28;20065;-57
2023/01/11 07:10:39;;;;;;;16.35;3.75;;;9.40;93.20;;;;;;5103758;28;20261;-58
2023/01/11 07:13:05;;;;;;;14.25;3.42;;;9.40;93.10;;;;;;5103908;28;20028;-57
2023/01/11 07:15:31;;;;;;;12.57;3.22;;;9.40;93.10;;;;;;5105147;28;20043;-57
2023/01/11 07:17:57;;;;;;;5.90;3.05;;;9.40;93.10;;;;;;5086677;28;20097;-57
2023/01/11 07:20:23;;;;;;;10.10;3.38;;;9.40;93.00;;;;;;5103579;28;20036;-57
2023/01/11 07:22:49;;;;;;;30.25;5.53;;;9.40;93.00;;;;;;5103511;28;20161;-57
2023/01/11 07:25:14;;;;;;;15.23;4.03;;;9.40;93.00;;;;;;5103734;28;20035;-57
2023/01/11 07:27:40;;;;;;;16.05;4.15;;;9.40;93.00;;;;;;5103950;28;20020;-57
2023/01/11 07:30:06;;;;;;;15.15;3.85;;;9.40;93.00;;;;;;5103480;28;20071;-57
2023/01/11 07:32:32;;;;;;;14.98;3.63;;;9.50;92.90;;;;;;5104991;28;20028;-57
2023/01/11 07:34:57;;;;;;;21.98;3.53;;;9.50;92.90;;;;;;5103476;28;20031;-58
2023/01/11 07:37:26;;;;;;;16.65;3.72;;;9.50;92.80;;;;;;5103346;28;20019;-57
2023/01/11 07:39:52;;;;;;;15.85;3.92;;;9.50;92.80;;;;;;5104820;28;20024;-57
2023/01/11 07:45:02;;;;;;;20.48;4.07;;;9.50;92.80;;;;;;5105011;28;20055;-58
2023/01/11 07:47:28;;;;;;;24.00;3.63;;;9.50;92.70;;;;;;5103438;28;20028;-58
2023/01/11 07:49:53;;;;;;;21.63;3.53;;;9.50;92.60;;;;;;5104830;28;20027;-58
2023/01/11 07:52:19;;;;;;;31.08;4.40;;;9.50;92.60;;;;;;5104013;28;20109;-57
2023/01/11 07:54:44;;;;;;;33.88;4.47;;;9.50;92.50;;;;;;5104554;28;20032;-57
2023/01/11 07:57:10;;;;;;;38.10;5.10;;;9.50;92.40;;;;;;5103147;28;20063;-58
2023/01/11 07:59:35;;;;;;;21.10;3.65;;;9.50;92.40;;;;;;5090065;28;20040;-57
2023/01/11 08:02:01;;;;;;;28.15;4.45;;;9.50;92.30;;;;;;5062872;28;20484;-58
2023/01/11 08:04:26;;;;;;;35.35;4.93;;;9.50;92.10;;;;;;5062719;28;20036;-57
2023/01/11 08:06:52;;;;;;;29.40;4.63;;;9.50;92.20;;;;;;5062718;28;20446;-57
2023/01/11 08:09:17;;;;;;;42.58;5.30;;;9.50;92.20;;;;;;5062304;28;20028;-57
2023/01/11 08:14:39;;;;;;;49.28;5.55;;;9.60;92.30;;;;;;5082688;28;20173;-57
2023/01/11 08:17:12;;;;;;;51.60;6.07;;;9.60;92.30;;;;;;5082354;28;20437;-57
2023/01/11 08:19:38;;;;;;;30.75;4.82;;;9.60;92.20;;;;;;5081309;28;20048;-57
2023/01/11 08:22:04;;;;;;;36.10;5.45;;;9.60;92.00;;;;;;5079469;28;20063;-57
2023/01/11 08:24:29;;;;;;;32.28;4.63;;;9.60;91.90;;;;;;5081962;28;20040;-58
2023/01/11 08:26:55;;;;;;;25.77;4.68;;;9.60;91.90;;;;;;5062767;28;20570;-57
2023/01/11 08:29:20;;;;;;;33.47;4.35;;;9.60;91.90;;;;;;5080275;28;20027;-57
2023/01/11 08:31:46;;;;;;;36.42;5.28;;;9.60;91.90;;;;;;5063735;28;20064;-57
2023/01/11 08:34:12;;;;;;;37.63;5.10;;;9.60;91.90;;;;;;5080678;28;20029;-57
2023/01/11 08:36:38;;;;;;;48.60;5.50;;;9.60;91.80;;;;;;5082808;28;20071;-57
2023/01/11 08:39:03;;;;;;;46.03;4.70;;;9.60;92.00;;;;;;5084189;28;20021;-57
2023/01/11 08:41:31;;;;;;;41.80;5.28;;;9.60;91.70;;;;;;5085172;28;20028;-57
2023/01/11 08:43:57;;;;;;;42.92;4.78;;;9.60;91.70;;;;;;5087553;28;20036;-57
2023/01/11 08:46:22;;;;;;;40.22;4.82;;;9.70;91.80;;;;;;5086212;28;20112;-57
2023/01/11 08:48:48;;;;;;;30.10;3.97;;;9.70;91.70;;;;;;5087757;28;20051;-56
2023/01/11 08:51:14;;;;;;;38.33;4.70;;;9.70;91.80;;;;;;5068969;28;20062;-57
2023/01/11 08:53:40;;;;;;;50.42;5.22;;;9.70;91.80;;;;;;5087987;28;20028;-58
2023/01/11 08:56:05;;;;;;;31.85;4.65;;;9.70;92.00;;;;;;5085853;28;20040;-57
2023/01/11 08:58:31;;;;;;;51.55;7.35;;;9.70;91.90;;;;;;5085846;28;20024;-57
2023/01/11 09:00:58;;;;;;;44.03;5.05;;;9.70;91.80;;;;;;5085452;28;20029;-58
2023/01/11 09:03:24;;;;;;;30.23;4.55;;;9.80;91.90;;;;;;5085131;28;20177;-57
2023/01/11 09:05:55;;;;;;;47.28;5.38;;;9.80;91.90;;;;;;5087595;28;20036;-57
2023/01/11 09:08:21;;;;;;;50.08;4.85;;;9.80;92.00;;;;;;5087663;28;20021;-55
2023/01/11 09:10:46;;;;;;;33.35;4.60;;;9.80;92.00;;;;;;5085430;28;20078;-55
2023/01/11 09:13:12;;;;;;;29.73;4.53;;;9.80;92.00;;;;;;5086189;28;20035;-55
2023/01/11 09:15:37;;;;;;;39.70;4.80;;;9.80;91.90;;;;;;5086063;28;20029;-55
2023/01/11 09:18:04;;;;;;;52.40;5.88;;;9.80;91.80;;;;;;5085294;28;20028;-55
2023/01/11 09:20:29;;;;;;;43.17;5.43;;;9.90;91.80;;;;;;5086474;28;20037;-55
2023/01/11 09:22:55;;;;;;;40.95;5.03;;;9.90;91.60;;;;;;5085757;28;20049;-55
2023/01/11 09:25:20;;;;;;;42.17;5.22;;;9.90;91.70;;;;;;5087257;28;20044;-55
2023/01/11 09:27:46;;;;;;;50.30;5.47;;;9.90;91.60;;;;;;5084948;28;20066;-55
2023/01/11 09:30:14;;;;;;;41.33;5.43;;;9.90;91.50;;;;;;5085299;28;20048;-57
2023/01/11 09:32:40;;;;;;;32.78;4.78;;;9.90;91.60;;;;;;5083672;28;20058;-57
2023/01/11 09:35:06;;;;;;;28.13;4.53;;;9.90;91.50;;;;;;5085636;28;20111;-57
2023/01/11 09:37:31;;;;;;;48.17;5.05;;;10.00;91.50;;;;;;5085544;28;20493;-57
2023/01/11 09:39:58;;;;;;;30.00;4.65;;;10.00;91.50;;;;;;5087210;28;20107;-57
2023/01/11 09:42:35;;;;;;;45.45;4.93;;;10.00;91.60;;;;;;5086150;28;20025;-57
2023/01/11 09:45:06;;;;;;;32.67;3.95;;;10.00;91.70;;;;;;5085110;28;20029;-57
2023/01/11 09:47:39;;;;;;;38.03;4.63;;;10.00;91.80;;;;;;5086636;28;20025;-57
2023/01/11 09:50:17;;;;;;;41.42;5.28;;;10.00;91.70;;;;;;5085260;28;20092;-57
2023/01/11 09:52:44;;;;;;;32.08;4.20;;;10.00;91.70;;;;;;5082168;28;20092;-55
2023/01/11 09:55:14;;;;;;;60.55;5.85;;;10.10;91.70;;;;;;5067293;28;20032;-55
2023/01/11 09:57:50;;;;;;;56.15;5.90;;;10.10;91.70;;;;;;5082392;28;20044;-55
2023/01/11 10:00:39;;;;;;;41.83;4.82;;;10.10;91.60;;;;;;5084859;28;20104;-55
2023/01/11 10:03:28;;;;;;;67.35;6.43;;;10.10;91.60;;;;;;5084627;28;20033;-55
2023/01/11 10:06:17;;;;;;;57.83;6.10;;;10.20;91.70;;;;;;5068644;28;20113;-55
2023/01/11 10:08:50;;;;;;;55.60;6.50;;;10.10;91.70;;;;;;5084133;28;20024;-57
2023/01/11 10:11:26;;;;;;;43.75;6.18;;;10.20;91.70;;;;;;5084728;28;20059;-57
2023/01/11 10:14:13;;;;;;;74.72;7.18;;;10.20;91.60;;;;;;5085823;28;20043;-57
2023/01/11 10:17:06;;;;;;;105.32;8.52;;;10.20;91.60;;;;;;5083423;28;20131;-57
2023/01/11 10:19:35;;;;;;;32.10;4.22;;;10.20;91.60;;;;;;5080040;28;20040;-57
2023/01/11 10:22:30;;;;;;;50.28;5.38;;;10.20;91.60;;;;;;5084184;28;20028;-57
2023/01/11 10:25:17;;;;;;;55.45;6.15;;;10.20;91.60;;;;;;5083531;28;20024;-57
2023/01/11 10:27:59;;;;;;;105.50;10.60;;;10.20;91.60;;;;;;5068896;28;20117;-55
2023/01/11 10:36:33;;;;;;;96.55;9.20;;;10.20;91.60;;;;;;5068294;28;20492;-55
2023/01/11 10:42:03;;;;;;;64.35;6.45;;;10.30;91.80;;;;;;5084244;28;20086;-57
2023/01/11 10:44:43;;;;;;;52.65;6.80;;;10.30;91.90;;;;;;5083752;28;20107;-58
2023/01/11 10:47:20;;;;;;;157.18;13.77;;;10.30;91.80;;;;;;5083029;28;20021;-57
2023/01/11 10:49:46;;;;;;;101.90;11.07;;;10.40;92.00;;;;;;5044008;28;20028;-57
2023/01/11 10:52:18;;;;;;;102.18;11.82;;;10.40;92.40;;;;;;5085371;28;20112;-57
2023/01/11 10:54:48;;;;;;;77.18;9.15;;;10.40;92.10;;;;;;5083595;28;20092;-57
2023/01/11 10:57:14;;;;;;;85.72;9.30;;;10.40;92.00;;;;;;5084954;28;20037;-57
2023/01/11 10:59:51;;;;;;;97.55;9.20;;;10.50;92.10;;;;;;5084947;28;20029;-57
2023/01/11 11:02:44;;;;;;;89.38;9.98;;;10.50;92.40;;;;;;5083588;28;20082;-57
2023/01/11 11:05:38;;;;;;;99.97;10.30;;;10.50;92.20;;;;;;5084663;28;20017;-58
2023/01/11 11:08:11;;;;;;;99.00;11.18;;;10.50;92.20;;;;;;5084584;28;20027;-57
2023/01/11 11:11:09;;;;;;;80.57;9.52;;;10.50;92.30;;;;;;5083370;28;20025;-58
2023/01/11 11:13:44;;;;;;;79.55;9.02;;;10.50;92.40;;;;;;5083399;28;20032;-58
2023/01/11 11:16:42;;;;;;;100.97;10.37;;;10.50;92.40;;;;;;5084885;28;20033;-58
2023/01/11 11:19:09;;;;;;;106.18;10.70;;;10.50;92.50;;;;;;5083408;28;20055;-55
2023/01/11 11:21:36;;;;;;;76.82;9.40;;;10.50;92.60;;;;;;5082633;28;20407;-55
2023/01/11 11:24:14;;;;;;;84.03;9.27;;;10.50;92.70;;;;;;5082988;28;20040;-55
2023/01/11 11:26:41;;;;;;;78.82;10.18;;;10.50;92.80;;;;;;5082958;28;20032;-55
2023/01/11 11:29:08;;;;;;;89.68;9.57;;;10.50;92.90;;;;;;5082868;28;20031;-54
2023/01/11 11:31:35;;;;;;;108.90;11.60;;;10.50;93.00;;;;;;5082809;28;20143;-54
2023/01/11 11:34:05;;;;;;;138.55;15.57;;;10.50;93.00;;;;;;5082682;28;20059;-54
2023/01/11 11:36:40;;;;;;;117.25;12.57;;;10.60;93.10;;;;;;5082659;28;20028;-54
2023/01/11 11:39:19;;;;;;;102.13;11.77;;;10.60;93.20;;;;;;5083113;28;20044;-54
2023/01/11 11:41:47;;;;;;;94.45;11.40;;;10.60;93.40;;;;;;5099541;28;20040;-54
2023/01/11 11:44:19;;;;;;;137.40;13.82;;;10.60;93.40;;;;;;5082443;28;20354;-54
2023/01/11 11:47:01;;;;;;;120.05;13.05;;;10.60;93.40;;;;;;5084303;28;20037;-54
2023/01/11 11:49:28;;;;;;;113.32;13.32;;;10.60;93.80;;;;;;5082885;28;20029;-56
2023/01/11 11:51:54;;;;;;;78.10;10.52;;;10.70;93.70;;;;;;5082696;28;20041;-56
2023/01/11 11:54:29;;;;;;;119.28;12.30;;;10.70;93.70;;;;;;5082633;28;20120;-55
2023/01/11 11:56:56;;;;;;;115.70;14.07;;;10.70;93.80;;;;;;5084382;28;20037;-57
2023/01/11 11:59:23;;;;;;;157.68;17.05;;;10.60;93.90;;;;;;5082946;28;20043;-57
2023/01/11 12:01:58;;;;;;;113.97;12.98;;;10.60;94.10;;;;;;5082818;28;20067;-57
2023/01/11 12:04:45;;;;;;;139.80;12.88;;;10.70;94.00;;;;;;5082795;28;20016;-57
2023/01/11 12:07:11;;;;;;;140.73;14.25;;;10.70;94.00;;;;;;5083186;28;20056;-57
2023/01/11 12:09:36;;;;;;;105.70;13.85;;;10.70;94.00;;;;;;5084068;28;20473;-57
2023/01/11 12:12:02;;;;;;;98.80;12.10;;;10.70;94.10;;;;;;5082815;28;20048;-57
2023/01/11 12:14:31;;;;;;;101.72;12.43;;;10.70;94.10;;;;;;5082986;28;20023;-57
2023/01/11 12:16:57;;;;;;;89.65;12.73;;;10.70;94.20;;;;;;5086283;28;20043;-57
2023/01/11 12:19:34;;;;;;;115.13;11.65;;;10.70;94.30;;;;;;5086603;28;20028;-57
2023/01/11 12:22:11;;;;;;;108.95;12.80;;;10.70;94.40;;;;;;5085974;28;20036;-56
2023/01/11 12:24:36;;;;;;;89.75;11.55;;;10.70;94.60;;;;;;5088860;28;20020;-56
2023/01/11 12:27:05;;;;;;;120.10;12.20;;;10.70;94.70;;;;;;5097358;28;20586;-57
2023/01/11 12:29:45;;;;;;;102.75;11.35;;;10.70;94.80;;;;;;5096405;28;20013;-57
2023/01/11 12:32:20;;;;;;;93.68;9.35;;;10.70;94.90;;;;;;5090100;28;20563;-56
2023/01/11 12:34:51;;;;;;;83.93;10.10;;;10.70;94.80;;;;;;5085446;28;20043;-56
2023/01/11 12:37:22;;;;;;;84.53;9.63;;;10.70;94.80;;;;;;5077598;28;20033;-57
2023/01/11 12:40:39;;;;;;;63.50;9.32;;;10.70;94.80;;;;;;5087138;28;20032;-56
2023/01/11 12:43:26;;;;;;;101.50;10.18;;;10.70;94.90;;;;;;5075563;28;20048;-56
2023/01/11 12:46:23;;;;;;;65.32;9.10;;;10.70;95.00;;;;;;5066514;28;20041;-57
2023/01/11 12:49:07;;;;;;;90.53;8.70;;;10.70;95.00;;;;;;5067464;28;20043;-57
2023/01/11 12:51:45;;;;;;;83.90;10.10;;;10.70;95.10;;;;;;5074225;28;20039;-56
2023/01/11 12:54:42;;;;;;;71.00;8.80;;;10.70;95.10;;;;;;5068417;28;20036;-56
2023/01/11 12:57:20;;;;;;;301.05;26.42;;;10.70;95.10;;;;;;5085186;28;20084;-56
2023/01/11 13:00:08;;;;;;;121.00;11.82;;;10.70;95.20;;;;;;5066575;28;20136;-56
2023/01/11 13:02:52;;;;;;;138.65;12.00;;;10.80;95.40;;;;;;5086892;28;20029;-57
2023/01/11 13:05:55;;;;;;;128.23;12.40;;;10.70;95.50;;;;;;5079441;28;20033;-56
2023/01/11 13:08:35;;;;;;;113.40;14.73;;;10.70;95.60;;;;;;5074757;28;20103;-56
2023/01/11 13:11:03;;;;;;;388.13;33.85;;;10.70;95.60;;;;;;5063193;28;20037;-57
2023/01/11 13:13:32;;;;;;;92.22;11.20;;;10.70;95.60;;;;;;5108447;28;20154;-57
2023/01/11 13:16:16;;;;;;;155.38;15.85;;;10.70;95.70;;;;;;5083125;28;20059;-56
2023/01/11 13:18:57;;;;;;;98.68;11.38;;;10.70;95.80;;;;;;5084414;28;20031;-57
2023/01/11 13:21:31;;;;;;;101.45;11.90;;;10.70;96.00;;;;;;5084260;28;20111;-56
2023/01/11 13:24:01;;;;;;;144.32;15.70;;;10.70;96.10;;;;;;5100318;28;20032;-57